SCELSCSE

Guest
Details From SCEL - Arturo Merino Benitez Intl
To SCSE - LA FLORIDA
Flight Number -
Tags decoded
Created
Modified
Stats Distance 242 nm / 448 km
Max Altitude 0 ft / 0 m
Waypoints 5
Social Downloads 0
Likes 0
Share VATSIM

Download

Looking for another format? Having issues loading an existing format? Contact us
Advertisement - Login to hide

Notes

Requested: SCEL VTN TOY BARCA SCSE

Route

SCEL VTN TOY BARCA SCSE

ID Type Via Altitude Latitude Longitude Leg Dist Tot Dist Heading (true) Name
O SCEL APT - 0 ft / 0 m -33.38978˚ -70.79437˚ - 0 nm - Arturo Merino Benitez Intl
VTN VOR - 0 ft / 0 m -32.73861˚ -71.49611˚ 52 nm 52 nm 318° / 318° VENTANAS VOR-DME
TOY NDB - 0 ft / 0 m -30.26306˚ -71.47972˚ 148 nm 201 nm 0° / 0° TONGOY NDB
BARCA FIX - 0 ft / 0 m -29.81667˚ -71.43222˚ 26 nm 228 nm 5° / 5° -
O SCSE APT - 0 ft / 0 m -29.91698˚ -71.19896˚ 13 nm 241 nm 116° / 116° LA FLORIDA

Altitude Profile

Advertisement - Login to hide

Weather


0- 5 10 15 20 25 30 35+ Temperature / ° C

Clouds and Precipitation
Forecast for 2017-12-15 12:00 UTC. Updated 2 hours ago

Ground ~20,000 ft ~40,000 ft Winds

SCEL

Details ICAO SCEL (SCL)
Name Arturo Merino Benitez Intl
Region Chile
Timezone America/Santiago (UTC-3.0)
Stats Elevation 1,550 ft / 472 m (AMSL)
Location -33.389775° -70.794366°
Runways 2
Magnetic Variation 1.801° E

METAR

SCEL 150900Z VRB02KT CAVOK 18/08 Q1011 NOSIG

Decode

TAF

TAF SCEL 150405Z 1506/1606 19010KT 8000 NSC TX34/1519Z TN17/1510Z TEMPO 1508/1515 VRB03KT 5000 HZ BECMG 1601/1603 VRB03KT CAVOK

Decode

Departure Runways

ID Width Length Bearing (true) Bearing (mag) Surface Threshold Offset Overrun Length
17L 180 ft / 55 m 10,523 ft / 3,207 m 177.43° 175.63° Asphalt 0 ft / 0 m 0 ft / 0 m
17R 148 ft / 45 m 12,504 ft / 3,811 m 177.44° 175.64° Asphalt 0 ft / 0 m 0 ft / 0 m
35L 148 ft / 45 m 12,504 ft / 3,811 m 357.44° 355.64° Asphalt 0 ft / 0 m 0 ft / 0 m
35R 180 ft / 55 m 10,523 ft / 3,207 m 357.43° 355.63° Asphalt 1,800 ft / 549 m 0 ft / 0 m

SCSE

Details ICAO SCSE (LSC)
Name LA FLORIDA
Region Chile
Timezone America/Santiago (UTC-3.0)
Stats Elevation 481 ft / 147 m (AMSL)
Location -29.916976° -71.198962°
Runways 2
Magnetic Variation 0.290° E

METAR

SCSE 150900Z 00000KT 9999 OVC010 15/13 Q1010

Decode

TAF

TAF SCSE 150404Z 1506/1606 VRB03KT 9999 SCT012 BKN020 TX20/1519Z TN13/1510Z TEMPO 1508/1515 27007KT 4000 BR BKN008 OVC012 BECMG 1516/1518 30010KT SCT010 BECMG 1520/1522 27005KT CAVOK BECMG 1602/1604 VRB03KT BKN008

Decode

Destination Runways

ID Width Length Bearing (true) Bearing (mag) Surface Threshold Offset Overrun Length
11 148 ft / 45 m 6,346 ft / 1,934 m 116.04° 115.75° Asphalt 0 ft / 0 m 100 ft / 30 m
11R 105 ft / 32 m 4,452 ft / 1,357 m 116.04° 115.75° Dirt 0 ft / 0 m 0 ft / 0 m
29 148 ft / 45 m 6,346 ft / 1,934 m 296.03° 295.74° Asphalt 0 ft / 0 m 100 ft / 30 m
29L 105 ft / 32 m 4,452 ft / 1,357 m 296.04° 295.75° Dirt 0 ft / 0 m 0 ft / 0 m

Popular Alternatives